createdAt,value
2022-09-20T00:01:55.899Z,97.40
2022-09-20T00:04:23.503Z,97.50
2022-09-20T00:06:53.334Z,98.20
2022-09-20T00:09:21.050Z,97.50
2022-09-20T00:11:48.839Z,97.70
2022-09-20T00:14:19.469Z,97.80
2022-09-20T00:16:46.979Z,98.00
2022-09-20T00:19:20.929Z,99.00
2022-09-20T00:21:48.736Z,98.20
2022-09-20T00:24:16.394Z,98.40
2022-09-20T00:26:43.965Z,98.60
2022-09-20T00:29:13.314Z,98.70
2022-09-20T00:31:42.940Z,98.80
2022-09-20T00:34:30.145Z,99.00
2022-09-20T00:36:59.679Z,99.10
2022-09-20T00:39:27.447Z,99.20
2022-09-20T00:41:55.115Z,99.40
2022-09-20T00:44:55.641Z,99.50
2022-09-20T00:47:33.006Z,99.70
2022-09-20T00:50:09.663Z,99.70
2022-09-20T00:52:37.623Z,99.80
2022-09-20T00:55:10.584Z,99.90
2022-09-20T00:57:41.856Z,99.90
2022-09-20T01:00:17.320Z,99.90
2022-09-20T01:02:57.705Z,99.90
2022-09-20T01:05:32.284Z,99.90
2022-09-20T01:08:01.879Z,99.90
2022-09-20T01:10:36.510Z,99.90
2022-09-20T01:13:05.750Z,99.90
2022-09-20T01:15:44.099Z,99.90
2022-09-20T01:18:17.316Z,99.90
2022-09-20T01:20:47.413Z,99.90
2022-09-20T01:23:30.563Z,99.90
2022-09-20T01:26:06.006Z,99.90
2022-09-20T01:28:40.889Z,99.90
2022-09-20T01:31:17.345Z,99.90
2022-09-20T01:34:11.278Z,99.90
2022-09-20T01:37:01.057Z,99.90
2022-09-20T01:40:04.907Z,99.90
2022-09-20T01:42:39.604Z,99.90
2022-09-20T01:45:32.339Z,99.90
2022-09-20T01:48:13.833Z,99.90
2022-09-20T01:51:16.831Z,99.90
2022-09-20T01:54:14.124Z,99.90
2022-09-20T01:57:00.931Z,99.90
2022-09-20T01:59:46.966Z,99.90
2022-09-20T02:02:52.392Z,99.90
2022-09-20T02:05:57.751Z,99.90
2022-09-20T02:08:56.186Z,99.90
2022-09-20T02:12:14.843Z,99.90
2022-09-20T02:15:19.784Z,99.90
2022-09-20T02:18:36.403Z,99.90
2022-09-20T02:21:28.479Z,99.90
2022-09-20T02:24:22.583Z,99.90
2022-09-20T02:27:20.920Z,99.90
2022-09-20T02:29:57.085Z,99.90
2022-09-20T02:32:46.198Z,99.90
2022-09-20T02:35:23.901Z,99.90
2022-09-20T02:38:01.293Z,99.90
2022-09-20T02:40:53.417Z,99.90
2022-09-20T02:43:30.053Z,99.90
2022-09-20T02:46:28.375Z,99.90
2022-09-20T02:49:17.147Z,99.90
2022-09-20T02:51:56.474Z,99.90
2022-09-20T02:54:46.160Z,99.90
2022-09-20T02:57:46.624Z,99.90
2022-09-20T03:00:43.364Z,99.90
2022-09-20T03:03:38.680Z,99.90
2022-09-20T03:06:14.925Z,99.90
2022-09-20T03:09:03.772Z,99.90
2022-09-20T03:12:01.172Z,99.90
2022-09-20T03:14:36.918Z,99.90
2022-09-20T03:17:27.779Z,99.90
2022-09-20T03:20:20.544Z,99.90
2022-09-20T03:22:48.856Z,99.90
2022-09-20T03:25:40.962Z,99.90
2022-09-20T03:28:46.401Z,99.90
2022-09-20T03:31:20.863Z,99.90
2022-09-20T03:34:19.730Z,99.90
2022-09-20T03:37:18.435Z,99.90
2022-09-20T03:40:12.336Z,99.90
2022-09-20T03:42:51.251Z,99.90
2022-09-20T03:45:35.943Z,99.90
2022-09-20T03:48:29.716Z,99.90
2022-09-20T03:51:00.444Z,99.90
2022-09-20T03:53:34.984Z,99.90
2022-09-20T03:56:23.736Z,99.90
2022-09-20T03:58:57.308Z,99.90
2022-09-20T04:01:54.129Z,99.90
2022-09-20T04:04:48.542Z,99.90
2022-09-20T04:07:51.180Z,99.90
2022-09-20T04:10:33.390Z,99.90
2022-09-20T04:13:19.579Z,99.90
2022-09-20T04:16:21.679Z,99.90
2022-09-20T04:18:58.612Z,99.90
2022-09-20T04:21:53.684Z,99.90
2022-09-20T04:24:56.538Z,99.90
2022-09-20T04:27:42.250Z,99.90
2022-09-20T04:30:30.356Z,99.90
2022-09-20T04:33:22.812Z,99.90
2022-09-20T04:36:30.717Z,99.90
2022-09-20T04:39:07.026Z,99.90
2022-09-20T04:41:54.000Z,99.90
2022-09-20T04:44:25.072Z,99.90
2022-09-20T04:47:25.498Z,99.90
2022-09-20T04:50:23.899Z,99.90
2022-09-20T04:53:30.316Z,99.90
2022-09-20T04:56:04.938Z,99.90
2022-09-20T04:58:38.048Z,99.90
2022-09-20T05:01:32.286Z,99.90
2022-09-20T05:04:18.601Z,99.90
2022-09-20T05:07:23.623Z,99.90
2022-09-20T05:10:26.438Z,99.90
2022-09-20T05:13:10.865Z,99.90
2022-09-20T05:16:01.100Z,99.90
2022-09-20T05:18:28.745Z,99.90
2022-09-20T05:21:22.796Z,99.90
2022-09-20T05:24:15.484Z,99.90
2022-09-20T05:27:03.328Z,99.90
2022-09-20T05:29:37.394Z,99.90
2022-09-20T05:32:36.702Z,99.90
2022-09-20T05:35:36.656Z,99.90
2022-09-20T05:38:19.001Z,99.90
2022-09-20T05:41:26.403Z,99.90
2022-09-20T05:44:24.220Z,99.90
2022-09-20T05:47:19.268Z,99.90
2022-09-20T05:50:19.357Z,99.90
2022-09-20T05:53:17.856Z,99.90
2022-09-20T05:56:24.582Z,99.90
2022-09-20T05:59:21.672Z,99.90
2022-09-20T06:02:11.240Z,99.90
2022-09-20T06:05:03.737Z,99.90
2022-09-20T06:08:03.963Z,99.90
2022-09-20T06:10:53.961Z,99.90
2022-09-20T06:14:03.483Z,99.90
2022-09-20T06:16:59.204Z,99.90
2022-09-20T06:19:41.385Z,99.90
2022-09-20T06:22:20.412Z,99.90
2022-09-20T06:24:58.842Z,99.90
2022-09-20T06:27:52.021Z,99.90
2022-09-20T06:30:34.791Z,99.90
2022-09-20T06:33:18.649Z,99.90
2022-09-20T06:36:30.061Z,99.90
2022-09-20T06:39:33.235Z,99.90
2022-09-20T06:42:02.250Z,99.90
2022-09-20T06:44:31.426Z,99.90
2022-09-20T06:47:00.442Z,99.90
2022-09-20T06:49:29.318Z,99.90
2022-09-20T06:51:59.223Z,99.90
2022-09-20T06:54:27.807Z,99.90
2022-09-20T06:56:55.899Z,99.90
2022-09-20T06:59:23.650Z,99.90
2022-09-20T07:02:01.246Z,99.90
2022-09-20T07:04:29.047Z,99.90
2022-09-20T07:07:09.621Z,99.90
2022-09-20T07:09:37.436Z,99.90
2022-09-20T07:12:05.067Z,99.90
2022-09-20T07:14:32.691Z,99.90
2022-09-20T07:17:03.820Z,99.90
2022-09-20T07:19:36.680Z,99.90
2022-09-20T07:22:04.365Z,99.90
2022-09-20T07:24:32.350Z,99.90
2022-09-20T07:27:05.127Z,99.90
2022-09-20T07:29:35.143Z,99.90
2022-09-20T07:32:03.004Z,99.90
2022-09-20T07:34:31.423Z,99.90
2022-09-20T07:37:00.378Z,99.90
2022-09-20T07:39:28.190Z,99.90
2022-09-20T07:41:56.148Z,99.90
2022-09-20T07:44:27.927Z,99.90
2022-09-20T07:47:01.563Z,99.90
2022-09-20T07:49:30.589Z,99.90
2022-09-20T07:52:00.665Z,99.90
2022-09-20T07:54:28.569Z,99.90
2022-09-20T07:56:57.542Z,99.60
2022-09-20T07:59:26.865Z,99.00
2022-09-20T08:01:58.927Z,98.30
2022-09-20T08:04:29.445Z,97.50
2022-09-20T08:06:59.627Z,96.80
2022-09-20T08:09:27.234Z,96.40
2022-09-20T08:11:56.708Z,95.70
2022-09-20T08:14:24.745Z,95.30
2022-09-20T08:16:52.809Z,94.90
2022-09-20T08:19:23.308Z,94.70
2022-09-20T08:21:56.379Z,94.40
2022-09-20T08:24:29.112Z,94.00
2022-09-20T08:26:57.255Z,93.70
2022-09-20T08:29:28.675Z,93.10
2022-09-20T08:31:59.011Z,92.60
2022-09-20T08:34:35.916Z,92.40
2022-09-20T08:37:09.655Z,92.00
2022-09-20T08:42:37.912Z,91.60
2022-09-20T08:45:34.605Z,91.40
2022-09-20T08:48:06.247Z,90.50
2022-09-20T08:50:41.161Z,91.20
2022-09-20T08:53:20.957Z,91.00
2022-09-20T08:55:50.507Z,90.60
2022-09-20T08:58:22.097Z,90.20
2022-09-20T09:00:52.944Z,89.50
2022-09-20T09:03:23.979Z,88.90
2022-09-20T09:05:58.561Z,88.10
2022-09-20T09:08:38.093Z,85.70
2022-09-20T09:11:09.671Z,85.60
2022-09-20T09:14:02.228Z,84.90
2022-09-20T09:16:35.250Z,83.00
2022-09-20T09:19:33.249Z,83.60
2022-09-20T09:22:04.439Z,81.20
2022-09-20T09:24:33.423Z,83.00
2022-09-20T09:27:18.794Z,82.90
2022-09-20T09:29:56.709Z,79.40
2022-09-20T09:32:31.216Z,77.40
2022-09-20T09:35:32.367Z,78.80
2022-09-20T09:38:04.391Z,74.90
2022-09-20T09:40:33.105Z,78.50
2022-09-20T09:43:03.137Z,78.00
2022-09-20T09:45:39.113Z,76.00
2022-09-20T09:48:30.339Z,75.90
2022-09-20T09:51:20.960Z,72.70
2022-09-20T09:53:51.335Z,72.00
2022-09-20T09:56:47.215Z,74.40
2022-09-20T09:59:42.268Z,69.50
2022-09-20T10:02:18.686Z,70.00
2022-09-20T10:05:00.495Z,72.00
2022-09-20T10:07:42.531Z,71.70
2022-09-20T10:10:32.496Z,69.60
2022-09-20T10:13:11.867Z,70.00
2022-09-20T10:16:11.844Z,70.70
2022-09-20T10:19:06.802Z,69.20
2022-09-20T10:22:01.953Z,70.30
2022-09-20T10:25:16.948Z,68.90
2022-09-20T10:27:58.343Z,67.60
2022-09-20T10:30:52.974Z,67.70
2022-09-20T10:33:54.051Z,68.60
2022-09-20T10:36:29.727Z,65.30
2022-09-20T10:39:21.067Z,66.90
2022-09-20T10:42:27.945Z,66.60
2022-09-20T10:45:53.365Z,67.50
2022-09-20T10:48:24.348Z,67.50
2022-09-20T10:51:00.179Z,67.40
2022-09-20T10:54:03.793Z,68.70
2022-09-20T10:56:47.197Z,68.50
2022-09-20T10:59:31.747Z,65.60
2022-09-20T11:02:36.539Z,67.70
2022-09-20T11:05:20.861Z,65.50
2022-09-20T11:07:56.817Z,66.70
2022-09-20T11:10:37.313Z,66.90
2022-09-20T11:13:39.778Z,65.70
2022-09-20T11:16:34.468Z,64.40
2022-09-20T11:19:18.466Z,65.40
2022-09-20T11:22:09.668Z,64.60
2022-09-20T11:24:47.540Z,63.60
2022-09-20T11:27:32.013Z,63.40
2022-09-20T11:30:20.038Z,64.00
2022-09-20T11:33:05.190Z,63.00
2022-09-20T11:35:48.056Z,63.20
2022-09-20T11:38:59.206Z,63.70
2022-09-20T11:41:31.645Z,62.50
2022-09-20T11:44:08.034Z,63.80
2022-09-20T11:46:47.917Z,62.80
2022-09-20T11:49:31.145Z,63.30
2022-09-20T11:52:07.648Z,62.80
2022-09-20T11:54:48.995Z,62.30
2022-09-20T11:57:17.737Z,62.60
2022-09-20T11:59:56.920Z,62.80
2022-09-20T12:02:27.464Z,62.30
2022-09-20T12:04:56.581Z,63.10
2022-09-20T12:07:42.141Z,62.50
2022-09-20T12:10:35.961Z,60.90
2022-09-20T12:13:07.618Z,61.20
2022-09-20T12:15:39.611Z,61.50
2022-09-20T12:18:28.869Z,60.50
2022-09-20T12:21:00.079Z,59.50
2022-09-20T12:23:59.700Z,61.10
2022-09-20T12:26:27.247Z,59.90
2022-09-20T12:29:09.900Z,60.60
2022-09-20T12:31:38.628Z,58.40
2022-09-20T12:34:14.490Z,59.30
2022-09-20T12:37:05.114Z,58.50
2022-09-20T12:39:38.741Z,59.30
2022-09-20T12:42:36.505Z,59.00
2022-09-20T12:45:18.932Z,58.10
2022-09-20T12:47:57.459Z,58.90
2022-09-20T12:50:56.326Z,59.30
2022-09-20T12:53:28.337Z,59.80
2022-09-20T12:56:02.037Z,60.00
2022-09-20T12:58:53.213Z,60.40
2022-09-20T13:01:21.092Z,60.10
2022-09-20T13:03:50.316Z,60.90
2022-09-20T13:06:19.290Z,60.60
2022-09-20T13:09:04.709Z,61.00
2022-09-20T13:11:56.044Z,60.70
2022-09-20T13:14:42.607Z,61.30
2022-09-20T13:17:26.886Z,59.70
2022-09-20T13:19:58.139Z,60.60
2022-09-20T13:22:29.132Z,61.20
2022-09-20T13:25:01.693Z,61.20
2022-09-20T13:28:21.601Z,61.50
2022-09-20T13:30:52.050Z,62.10
2022-09-20T13:33:25.070Z,62.30
2022-09-20T13:35:57.229Z,62.30
2022-09-20T13:38:30.188Z,62.90
2022-09-20T13:41:13.102Z,62.90
2022-09-20T13:43:41.975Z,62.50
2022-09-20T13:46:33.523Z,62.20
2022-09-20T13:49:20.813Z,62.10
2022-09-20T13:51:49.330Z,63.60
2022-09-20T13:54:31.858Z,63.10
2022-09-20T13:57:06.152Z,63.30
2022-09-20T13:59:44.950Z,63.90
2022-09-20T14:02:28.055Z,63.20
2022-09-20T14:05:00.832Z,62.70
2022-09-20T14:07:29.795Z,63.00
2022-09-20T14:10:01.473Z,63.40
2022-09-20T14:12:31.630Z,63.50
2022-09-20T14:15:00.062Z,63.30
2022-09-20T14:17:35.676Z,63.70
2022-09-20T14:20:03.826Z,63.80
2022-09-20T14:22:35.419Z,64.30
2022-09-20T14:25:21.688Z,64.50
2022-09-20T14:28:09.530Z,64.50
2022-09-20T14:30:49.319Z,64.50
2022-09-20T14:33:21.456Z,64.30
2022-09-20T14:35:51.723Z,65.30
2022-09-20T14:38:24.239Z,65.50
2022-09-20T14:40:52.723Z,64.50
2022-09-20T14:43:33.055Z,64.70
2022-09-20T14:46:07.738Z,65.30
2022-09-20T14:48:43.487Z,65.40
2022-09-20T14:51:27.724Z,65.70
2022-09-20T14:54:13.467Z,65.70
2022-09-20T14:56:49.438Z,66.00
2022-09-20T14:59:22.969Z,65.80
2022-09-20T15:02:10.389Z,66.30
2022-09-20T15:04:53.208Z,67.50
2022-09-20T15:07:27.216Z,67.00
2022-09-20T15:09:55.734Z,66.70
2022-09-20T15:12:23.898Z,66.80
2022-09-20T15:15:00.464Z,66.70
2022-09-20T15:17:28.118Z,66.40
2022-09-20T15:19:55.976Z,66.20
2022-09-20T15:22:24.120Z,66.60
2022-09-20T15:25:01.815Z,66.50
2022-09-20T15:27:31.640Z,66.40
2022-09-20T15:29:59.422Z,66.80
2022-09-20T15:32:28.702Z,67.20
2022-09-20T15:34:56.313Z,67.50
2022-09-20T15:37:24.142Z,67.30
2022-09-20T15:39:52.237Z,66.80
2022-09-20T15:42:21.636Z,67.70
2022-09-20T15:44:57.003Z,67.30
2022-09-20T15:47:26.844Z,68.30
2022-09-20T15:49:54.954Z,68.10
2022-09-20T15:52:29.065Z,68.40
2022-09-20T15:54:59.585Z,67.90
2022-09-20T15:57:27.552Z,68.30
2022-09-20T16:00:05.174Z,68.60
2022-09-20T16:02:37.264Z,69.20
2022-09-20T16:05:14.559Z,69.10
2022-09-20T16:07:46.180Z,70.20
2022-09-20T16:10:15.372Z,69.00
2022-09-20T16:12:48.872Z,69.20
2022-09-20T16:15:17.156Z,69.50
2022-09-20T16:18:03.288Z,69.60
2022-09-20T16:20:34.181Z,69.70
2022-09-20T16:23:03.843Z,70.00
2022-09-20T16:25:34.388Z,70.10
2022-09-20T16:28:02.418Z,70.50
2022-09-20T16:30:31.126Z,71.00
2022-09-20T16:33:06.055Z,71.30
2022-09-20T16:35:34.271Z,71.60
2022-09-20T16:38:02.076Z,72.20
2022-09-20T16:40:33.828Z,72.60
2022-09-20T16:43:11.624Z,72.90
2022-09-20T16:45:41.426Z,73.00
2022-09-20T16:48:09.993Z,73.30
2022-09-20T16:50:39.963Z,73.60
2022-09-20T16:53:12.221Z,74.00
2022-09-20T16:55:45.353Z,74.30
2022-09-20T16:58:13.248Z,75.20
2022-09-20T17:00:43.898Z,74.60
2022-09-20T17:03:12.494Z,74.90
2022-09-20T17:05:44.191Z,74.90
2022-09-20T17:08:18.061Z,75.00
2022-09-20T17:11:00.404Z,75.20
2022-09-20T17:13:34.343Z,75.70
2022-09-20T17:16:19.479Z,75.70
2022-09-20T17:18:56.438Z,76.20
2022-09-20T17:21:25.440Z,75.70
2022-09-20T17:24:13.867Z,75.50
2022-09-20T17:26:46.696Z,75.80
2022-09-20T17:29:17.791Z,76.10
2022-09-20T17:31:56.238Z,76.10
2022-09-20T17:34:25.631Z,76.20
2022-09-20T17:36:55.389Z,76.10
2022-09-20T17:39:33.769Z,75.90
2022-09-20T17:42:04.457Z,75.90
2022-09-20T17:44:36.742Z,75.70
2022-09-20T17:47:04.713Z,75.80
2022-09-20T17:49:37.680Z,75.80
2022-09-20T17:52:09.884Z,75.90
2022-09-20T17:54:51.469Z,76.20
2022-09-20T17:57:19.303Z,76.80
2022-09-20T17:59:49.517Z,76.70
2022-09-20T18:02:23.949Z,76.80
2022-09-20T18:04:54.021Z,76.90
2022-09-20T18:07:21.600Z,77.10
2022-09-20T18:09:49.239Z,77.50
2022-09-20T18:12:21.589Z,77.80
2022-09-20T18:14:49.325Z,78.30
2022-09-20T18:17:16.965Z,78.70
2022-09-20T18:19:44.733Z,79.10
2022-09-20T18:22:13.240Z,79.50
2022-09-20T18:24:41.014Z,79.80
2022-09-20T18:27:13.409Z,80.20
2022-09-20T18:29:41.329Z,80.70
2022-09-20T18:32:12.413Z,81.20
2022-09-20T18:34:46.266Z,81.70
2022-09-20T18:37:14.844Z,82.40
2022-09-20T18:39:43.101Z,82.70
2022-09-20T18:42:19.655Z,83.10
2022-09-20T18:44:54.132Z,83.60
2022-09-20T18:47:22.141Z,84.10
2022-09-20T18:49:53.942Z,84.40
2022-09-20T18:52:24.159Z,84.70
2022-09-20T18:54:53.873Z,84.90
2022-09-20T18:57:22.106Z,85.20
2022-09-20T18:59:55.213Z,85.60
2022-09-20T19:02:59.481Z,85.80
2022-09-20T19:05:32.594Z,87.20
2022-09-20T19:08:21.867Z,86.40
2022-09-20T19:11:01.274Z,86.60
2022-09-20T19:13:44.995Z,87.10
2022-09-20T19:16:39.073Z,87.70
2022-09-20T19:19:41.050Z,87.70
2022-09-20T19:22:44.003Z,88.80
2022-09-20T19:25:25.273Z,88.90
2022-09-20T19:27:54.495Z,90.00
2022-09-20T19:30:28.356Z,87.80
2022-09-20T19:33:04.288Z,88.40
2022-09-20T19:35:39.440Z,88.60
2022-09-20T19:38:15.591Z,88.90
2022-09-20T19:40:59.688Z,89.20
2022-09-20T19:44:12.402Z,89.40
2022-09-20T19:47:08.884Z,90.50
2022-09-20T19:49:46.540Z,90.30
2022-09-20T19:52:15.608Z,89.80
2022-09-20T19:54:49.321Z,90.00
2022-09-20T19:57:28.545Z,90.10
2022-09-20T19:59:58.863Z,90.20
2022-09-20T20:02:26.767Z,90.30
2022-09-20T20:04:54.686Z,90.40
2022-09-20T20:07:43.088Z,90.50
2022-09-20T20:10:44.025Z,90.70
2022-09-20T20:14:15.162Z,91.10
2022-09-20T20:17:20.940Z,91.20
2022-09-20T20:20:11.116Z,91.60
2022-09-20T20:22:56.906Z,91.20
2022-09-20T20:25:36.108Z,91.10
2022-09-20T20:28:13.844Z,91.20
2022-09-20T20:30:42.258Z,91.40
2022-09-20T20:33:25.026Z,91.60
2022-09-20T20:35:58.666Z,91.60
2022-09-20T20:38:27.251Z,91.70
2022-09-20T20:41:06.737Z,91.80
2022-09-20T20:43:45.781Z,92.00
2022-09-20T20:46:18.817Z,91.90
2022-09-20T20:48:48.078Z,91.80
2022-09-20T20:51:18.558Z,91.90
2022-09-20T20:53:50.565Z,92.00
2022-09-20T20:56:23.284Z,91.90
2022-09-20T20:58:51.343Z,92.00
2022-09-20T21:01:29.899Z,92.10
2022-09-20T21:03:58.960Z,92.20
2022-09-20T21:06:30.356Z,92.30
2022-09-20T21:08:58.476Z,92.40
2022-09-20T21:11:33.682Z,92.50
2022-09-20T21:14:04.961Z,92.70
2022-09-20T21:16:40.424Z,92.80
2022-09-20T21:19:09.628Z,92.80
2022-09-20T21:21:39.227Z,93.10
2022-09-20T21:24:09.444Z,93.20
2022-09-20T21:26:40.835Z,93.40
2022-09-20T21:29:16.362Z,93.50
2022-09-20T21:32:06.370Z,93.60
2022-09-20T21:34:38.793Z,93.80
2022-09-20T21:37:06.507Z,93.90
2022-09-20T21:39:42.255Z,94.00
2022-09-20T21:42:10.101Z,94.10
2022-09-20T21:44:38.924Z,94.10
2022-09-20T21:47:09.906Z,94.20
2022-09-20T21:49:37.436Z,94.30
2022-09-20T21:52:07.695Z,94.30
2022-09-20T21:54:35.325Z,94.50
2022-09-20T21:57:05.629Z,94.60
2022-09-20T21:59:33.711Z,94.70
2022-09-20T22:02:04.578Z,94.90
2022-09-20T22:04:32.513Z,94.90
2022-09-20T22:07:17.113Z,95.10
2022-09-20T22:09:45.361Z,95.30
2022-09-20T22:12:13.085Z,95.40
2022-09-20T22:14:41.692Z,95.60
2022-09-20T22:17:09.575Z,95.80
2022-09-20T22:19:38.005Z,96.00
2022-09-20T22:22:05.617Z,96.10
2022-09-20T22:24:36.109Z,96.30
2022-09-20T22:27:09.321Z,96.40
2022-09-20T22:29:37.348Z,96.40
2022-09-20T22:32:05.579Z,96.50
2022-09-20T22:34:41.997Z,96.50
2022-09-20T22:37:10.244Z,96.70
2022-09-20T22:39:38.882Z,96.50
2022-09-20T22:42:06.645Z,96.50
2022-09-20T22:44:35.508Z,96.60
2022-09-20T22:47:03.963Z,96.60
2022-09-20T22:49:31.835Z,96.70
2022-09-20T22:52:08.877Z,96.70
2022-09-20T22:54:36.812Z,96.70
2022-09-20T22:57:08.195Z,96.70
2022-09-20T22:59:36.072Z,96.80
2022-09-20T23:02:06.554Z,96.80
2022-09-20T23:04:37.447Z,96.90
2022-09-20T23:07:07.861Z,96.90
2022-09-20T23:09:35.862Z,96.90
2022-09-20T23:12:11.509Z,96.90
2022-09-20T23:14:47.828Z,96.90
2022-09-20T23:17:15.710Z,96.80
2022-09-20T23:19:44.709Z,96.90
2022-09-20T23:22:13.060Z,97.00
2022-09-20T23:24:43.482Z,97.10
2022-09-20T23:27:17.651Z,97.20
2022-09-20T23:29:45.591Z,97.10
2022-09-20T23:32:13.537Z,97.20
2022-09-20T23:34:44.249Z,97.20
2022-09-20T23:37:12.053Z,97.40
2022-09-20T23:39:42.789Z,97.90
2022-09-20T23:42:12.923Z,97.30
2022-09-20T23:44:43.602Z,97.40
2022-09-20T23:47:11.329Z,97.50
2022-09-20T23:49:39.377Z,98.00
2022-09-20T23:52:11.175Z,97.50
2022-09-20T23:54:42.516Z,97.80
2022-09-20T23:57:12.943Z,97.70
2022-09-20T23:59:41.339Z,97.70
